createdAt,value
2018-11-06T00:01:43.683Z,15.03
2018-11-06T00:04:58.402Z,14.87
2018-11-06T00:08:07.590Z,15.13
2018-11-06T00:11:16.880Z,14.83
2018-11-06T00:14:26.240Z,14.70
2018-11-06T00:17:35.839Z,15.07
2018-11-06T00:20:45.090Z,15.30
2018-11-06T00:23:54.377Z,15.87
2018-11-06T00:27:03.659Z,14.93
2018-11-06T00:30:13.784Z,15.23
2018-11-06T00:33:22.926Z,15.47
2018-11-06T00:36:33.095Z,15.60
2018-11-06T00:39:42.351Z,15.30
2018-11-06T00:42:51.674Z,14.77
2018-11-06T00:46:00.974Z,16.17
2018-11-06T00:49:10.227Z,15.23
2018-11-06T00:52:21.222Z,15.63
2018-11-06T00:55:30.496Z,14.70
2018-11-06T00:58:40.047Z,15.50
2018-11-06T01:01:49.250Z,14.80
2018-11-06T01:05:07.376Z,14.97
2018-11-06T01:08:18.240Z,15.30
2018-11-06T01:11:28.597Z,14.93
2018-11-06T01:14:38.447Z,14.93
2018-11-06T01:17:48.047Z,15.30
2018-11-06T01:20:58.483Z,14.80
2018-11-06T01:24:09.589Z,14.70
2018-11-06T01:27:18.903Z,14.80
2018-11-06T01:30:28.314Z,16.07
2018-11-06T01:33:37.634Z,16.00
2018-11-06T01:36:47.075Z,15.70
2018-11-06T01:39:56.226Z,15.13
2018-11-06T01:43:05.484Z,15.20
2018-11-06T01:46:14.718Z,15.60
2018-11-06T01:49:30.796Z,15.10
2018-11-06T01:52:40.375Z,15.03
2018-11-06T01:55:49.593Z,15.60
2018-11-06T01:58:58.711Z,15.30
2018-11-06T02:02:08.754Z,15.73
2018-11-06T02:05:18.782Z,15.33
2018-11-06T02:08:28.819Z,15.57
2018-11-06T02:11:38.311Z,15.47
2018-11-06T02:14:47.602Z,15.40
2018-11-06T02:18:03.785Z,15.50
2018-11-06T02:21:13.159Z,16.23
2018-11-06T02:24:22.536Z,16.57
2018-11-06T02:27:31.810Z,15.20
2018-11-06T02:30:40.983Z,15.43
2018-11-06T02:33:50.808Z,17.60
2018-11-06T02:37:01.367Z,17.30
2018-11-06T02:40:12.714Z,16.53
2018-11-06T02:43:22.242Z,16.70
2018-11-06T02:46:31.694Z,16.70
2018-11-06T02:49:41.057Z,16.60
2018-11-06T02:52:50.395Z,17.23
2018-11-06T02:55:59.849Z,17.00
2018-11-06T02:59:09.690Z,17.77
2018-11-06T03:02:18.854Z,17.57
2018-11-06T03:05:28.176Z,18.27
2018-11-06T03:08:37.459Z,18.17
2018-11-06T03:11:46.864Z,18.10
2018-11-06T03:14:56.239Z,17.97
2018-11-06T03:18:06.298Z,18.03
2018-11-06T03:21:15.583Z,18.50
2018-11-06T03:24:24.685Z,18.60
2018-11-06T03:27:33.830Z,18.73
2018-11-06T03:30:44.774Z,18.57
2018-11-06T03:33:55.133Z,18.07
2018-11-06T03:37:05.656Z,18.03
2018-11-06T03:40:15.002Z,18.60
2018-11-06T03:43:24.484Z,18.70
2018-11-06T03:46:35.011Z,19.43
2018-11-06T03:49:44.267Z,18.33
2018-11-06T03:52:53.370Z,18.73
2018-11-06T03:56:02.632Z,18.93
2018-11-06T03:59:12.108Z,18.97
2018-11-06T04:02:21.511Z,18.73
2018-11-06T04:05:34.526Z,19.63
2018-11-06T04:08:45.176Z,19.53
2018-11-06T04:11:58.081Z,19.73
2018-11-06T04:15:07.878Z,20.10
2018-11-06T04:18:19.614Z,19.80
2018-11-06T04:21:37.645Z,20.37
2018-11-06T04:24:46.975Z,21.00
2018-11-06T04:27:56.163Z,21.33
2018-11-06T04:31:05.395Z,20.57
2018-11-06T04:34:14.629Z,21.57
2018-11-06T04:37:23.790Z,21.27
2018-11-06T04:40:33.585Z,22.33
2018-11-06T04:43:42.740Z,21.67
2018-11-06T04:46:52.075Z,22.07
2018-11-06T04:50:01.284Z,22.20
2018-11-06T04:53:10.406Z,22.63
2018-11-06T04:56:27.051Z,22.23
2018-11-06T04:59:36.391Z,23.67
2018-11-06T05:02:45.681Z,22.43
2018-11-06T05:06:01.804Z,22.30
2018-11-06T05:09:11.226Z,23.00
2018-11-06T05:12:21.210Z,22.50
2018-11-06T05:15:31.158Z,22.80
2018-11-06T05:18:42.246Z,23.73
2018-11-06T05:21:53.910Z,24.37
2018-11-06T05:25:04.315Z,24.00
2018-11-06T05:28:14.758Z,25.20
2018-11-06T05:31:24.665Z,23.60
2018-11-06T05:34:34.074Z,25.53
2018-11-06T05:37:43.223Z,26.00
2018-11-06T05:40:58.286Z,26.33
2018-11-06T05:44:07.611Z,25.50
2018-11-06T05:47:16.794Z,26.53
2018-11-06T05:50:26.158Z,26.83
2018-11-06T05:53:35.296Z,27.13
2018-11-06T05:56:45.892Z,28.47
2018-11-06T05:59:55.401Z,28.50
2018-11-06T06:03:04.880Z,29.10
2018-11-06T06:06:14.139Z,29.57
2018-11-06T06:09:23.451Z,28.67
2018-11-06T06:12:32.628Z,28.97
2018-11-06T06:15:41.743Z,29.03
2018-11-06T06:18:51.112Z,30.03
2018-11-06T06:22:00.466Z,30.97
2018-11-06T06:25:09.796Z,30.13
2018-11-06T06:28:19.426Z,30.87
2018-11-06T06:31:28.816Z,32.23
2018-11-06T06:34:38.498Z,30.07
2018-11-06T06:37:47.831Z,29.80
2018-11-06T06:40:57.163Z,28.60
2018-11-06T06:44:06.684Z,31.13
2018-11-06T06:47:15.952Z,29.30
2018-11-06T06:50:25.410Z,32.53
2018-11-06T06:53:34.759Z,32.30
2018-11-06T06:56:44.143Z,33.87
2018-11-06T06:59:53.213Z,31.23
2018-11-06T07:03:02.576Z,31.80
2018-11-06T07:06:12.064Z,32.20
2018-11-06T07:09:21.350Z,31.50
2018-11-06T07:12:30.834Z,29.50
2018-11-06T07:15:40.046Z,28.27
2018-11-06T07:18:49.353Z,27.53
2018-11-06T07:21:58.602Z,28.83
2018-11-06T07:25:09.070Z,28.23
2018-11-06T07:28:18.220Z,28.70
2018-11-06T07:31:27.344Z,26.10
2018-11-06T07:34:36.713Z,23.57
2018-11-06T07:37:46.091Z,24.07
2018-11-06T07:40:55.444Z,25.57
2018-11-06T07:44:04.916Z,24.47
2018-11-06T07:47:14.060Z,24.73
2018-11-06T07:50:23.531Z,25.90
2018-11-06T07:53:32.755Z,26.00
2018-11-06T07:56:42.154Z,25.27
2018-11-06T07:59:51.905Z,25.33
2018-11-06T08:03:01.044Z,24.57
2018-11-06T08:06:10.278Z,25.37
2018-11-06T08:09:19.676Z,25.17
2018-11-06T08:12:29.067Z,25.03
2018-11-06T08:15:38.284Z,24.33
2018-11-06T08:18:47.526Z,25.27
2018-11-06T08:21:56.798Z,23.87
2018-11-06T08:25:06.681Z,24.17
2018-11-06T08:28:15.838Z,24.43
2018-11-06T08:31:25.478Z,24.70
2018-11-06T08:34:34.504Z,24.63
2018-11-06T08:37:43.911Z,25.87
2018-11-06T08:40:53.176Z,25.07
2018-11-06T08:44:02.713Z,25.10
2018-11-06T08:47:12.075Z,24.67
2018-11-06T08:50:21.391Z,24.60
2018-11-06T08:53:30.676Z,25.33
2018-11-06T08:56:39.978Z,24.23
2018-11-06T08:59:49.392Z,25.33
2018-11-06T09:02:58.834Z,26.50
2018-11-06T09:06:08.171Z,25.93
2018-11-06T09:10:00.836Z,25.10
2018-11-06T09:13:10.059Z,25.03
2018-11-06T09:16:19.217Z,24.20
2018-11-06T09:19:28.529Z,25.20
2018-11-06T09:22:37.795Z,25.70
2018-11-06T09:25:47.020Z,25.13
2018-11-06T09:28:56.475Z,25.50
2018-11-06T09:32:06.117Z,26.30
2018-11-06T09:35:15.651Z,24.53
2018-11-06T09:38:24.781Z,25.07
2018-11-06T09:41:34.068Z,24.13
2018-11-06T09:44:43.251Z,25.10
2018-11-06T09:47:52.453Z,24.43
2018-11-06T09:51:01.574Z,25.20
2018-11-06T09:54:10.836Z,26.27
2018-11-06T09:57:20.012Z,25.20
2018-11-06T10:00:29.316Z,23.97
2018-11-06T10:03:38.571Z,24.87
2018-11-06T10:06:48.101Z,24.93
2018-11-06T10:09:57.295Z,24.30
2018-11-06T10:13:06.444Z,24.40
2018-11-06T10:16:15.935Z,24.03
2018-11-06T10:19:25.304Z,25.70
2018-11-06T10:22:34.447Z,25.60
2018-11-06T10:25:43.755Z,23.83
2018-11-06T10:28:53.005Z,25.10
2018-11-06T10:32:02.316Z,24.50
2018-11-06T10:35:11.922Z,24.57
2018-11-06T10:38:21.188Z,24.13
2018-11-06T10:41:30.427Z,23.83
2018-11-06T10:44:39.748Z,22.77
2018-11-06T10:47:49.187Z,24.00
2018-11-06T10:50:58.480Z,23.63
2018-11-06T10:54:07.650Z,24.43
2018-11-06T10:57:17.119Z,24.53
2018-11-06T11:00:31.642Z,23.13
2018-11-06T11:03:49.043Z,24.60
2018-11-06T11:06:58.442Z,23.30
2018-11-06T11:10:07.664Z,24.00
2018-11-06T11:13:16.962Z,22.43
2018-11-06T11:16:26.047Z,22.77
2018-11-06T11:19:35.375Z,22.90
2018-11-06T11:22:44.658Z,23.67
2018-11-06T11:25:53.998Z,23.77
2018-11-06T11:29:03.120Z,23.17
2018-11-06T11:32:12.253Z,24.03
2018-11-06T11:35:21.447Z,24.07
2018-11-06T11:38:30.876Z,21.27
2018-11-06T11:41:40.366Z,21.13
2018-11-06T11:44:49.508Z,22.97
2018-11-06T11:47:58.891Z,21.97
2018-11-06T11:51:08.136Z,22.50
2018-11-06T11:54:17.395Z,21.90
2018-11-06T11:57:26.958Z,20.73
2018-11-06T12:00:38.185Z,22.07
2018-11-06T12:03:47.517Z,20.17
2018-11-06T12:06:56.785Z,21.33
2018-11-06T12:10:06.769Z,21.13
2018-11-06T12:13:15.995Z,19.70
2018-11-06T12:16:25.368Z,20.83
2018-11-06T12:19:34.666Z,19.20
2018-11-06T12:22:43.917Z,20.60
2018-11-06T12:25:53.200Z,19.57
2018-11-06T12:29:02.305Z,19.23
2018-11-06T12:32:11.740Z,20.33
2018-11-06T12:35:21.090Z,19.17
2018-11-06T12:38:30.319Z,21.17
2018-11-06T12:41:39.513Z,19.47
2018-11-06T12:44:48.701Z,18.93
2018-11-06T12:47:57.918Z,19.20
2018-11-06T12:51:07.420Z,18.97
2018-11-06T12:54:18.717Z,20.50
2018-11-06T12:57:28.068Z,19.03
2018-11-06T13:00:37.323Z,18.83
2018-11-06T13:03:46.752Z,19.33
2018-11-06T13:06:55.896Z,18.97
2018-11-06T13:10:05.208Z,18.90
2018-11-06T13:13:14.297Z,19.43
2018-11-06T13:16:23.507Z,19.47
2018-11-06T13:19:32.667Z,19.33
2018-11-06T13:22:42.653Z,18.60
2018-11-06T13:25:51.864Z,18.60
2018-11-06T13:29:01.022Z,18.50
2018-11-06T13:32:10.414Z,18.43
2018-11-06T13:35:19.532Z,19.60
2018-11-06T13:38:28.899Z,18.77
2018-11-06T13:41:38.171Z,19.77
2018-11-06T13:44:47.714Z,19.80
2018-11-06T13:47:56.585Z,18.87
2018-11-06T13:51:05.963Z,19.73
2018-11-06T13:54:15.307Z,19.27
2018-11-06T13:57:24.697Z,19.13
2018-11-06T14:00:33.988Z,19.20
2018-11-06T14:03:43.275Z,19.57
2018-11-06T14:06:52.426Z,21.80
2018-11-06T14:10:01.553Z,19.50
2018-11-06T14:13:10.819Z,19.33
2018-11-06T14:16:20.145Z,19.63
2018-11-06T14:19:29.372Z,19.63
2018-11-06T14:22:38.599Z,19.60
2018-11-06T14:25:47.773Z,19.43
2018-11-06T14:28:57.178Z,20.43
2018-11-06T14:32:06.467Z,20.33
2018-11-06T14:35:16.874Z,19.63
2018-11-06T14:38:26.214Z,21.30
2018-11-06T14:41:35.956Z,21.10
2018-11-06T14:44:45.070Z,20.50
2018-11-06T14:47:54.344Z,20.53
2018-11-06T14:51:03.631Z,20.87
2018-11-06T14:54:12.749Z,21.47
2018-11-06T14:57:22.041Z,20.40
2018-11-06T15:00:31.154Z,20.67
2018-11-06T15:03:40.303Z,20.87
2018-11-06T15:06:49.615Z,22.33
2018-11-06T15:09:58.896Z,21.23
2018-11-06T15:13:08.195Z,21.40
2018-11-06T15:16:17.489Z,19.23
2018-11-06T15:19:26.891Z,19.47
2018-11-06T15:22:43.441Z,20.40
2018-11-06T15:25:52.693Z,21.13
2018-11-06T15:29:01.984Z,20.87
2018-11-06T15:32:11.509Z,22.33
2018-11-06T15:35:22.015Z,21.87
2018-11-06T15:38:31.279Z,21.57
2018-11-06T15:41:41.551Z,20.97
2018-11-06T15:44:50.867Z,22.30
2018-11-06T15:47:59.998Z,22.23
2018-11-06T15:51:09.316Z,21.87
2018-11-06T15:54:18.568Z,21.97
2018-11-06T15:57:27.735Z,21.40
2018-11-06T16:00:37.038Z,22.47
2018-11-06T16:03:46.477Z,23.77
2018-11-06T16:06:55.881Z,25.23
2018-11-06T16:10:09.102Z,25.10
2018-11-06T16:13:18.219Z,24.40
2018-11-06T16:16:27.423Z,23.47
2018-11-06T16:19:36.731Z,24.57
2018-11-06T16:22:46.240Z,25.03
2018-11-06T16:25:55.528Z,24.27
2018-11-06T16:29:05.275Z,23.83
2018-11-06T16:32:14.566Z,24.07
2018-11-06T16:35:24.002Z,24.40
2018-11-06T16:38:33.170Z,24.47
2018-11-06T16:41:42.741Z,24.83
2018-11-06T16:44:52.101Z,24.93
2018-11-06T16:48:01.266Z,24.70
2018-11-06T16:51:10.510Z,25.10
2018-11-06T16:54:19.680Z,25.13
2018-11-06T16:57:29.080Z,23.87
2018-11-06T17:00:38.471Z,25.10
2018-11-06T17:03:47.792Z,24.73
2018-11-06T17:06:57.011Z,24.93
2018-11-06T17:10:08.028Z,25.67
2018-11-06T17:13:17.488Z,27.27
2018-11-06T17:16:26.683Z,26.30
2018-11-06T17:19:36.034Z,25.43
2018-11-06T17:22:45.296Z,27.20
2018-11-06T17:25:54.640Z,26.93
2018-11-06T17:29:04.545Z,27.43
2018-11-06T17:32:13.867Z,28.60
2018-11-06T17:35:22.971Z,28.37
2018-11-06T17:38:32.448Z,27.93
2018-11-06T17:41:41.887Z,27.60
2018-11-06T17:44:50.968Z,29.17
2018-11-06T17:48:00.275Z,29.23
2018-11-06T17:51:09.502Z,29.27
2018-11-06T17:54:18.822Z,31.13
2018-11-06T17:57:28.146Z,29.93
2018-11-06T18:00:37.319Z,29.87
2018-11-06T18:03:46.458Z,30.47
2018-11-06T18:06:55.754Z,29.67
2018-11-06T18:10:06.085Z,30.73
2018-11-06T18:13:15.355Z,29.53
2018-11-06T18:16:24.595Z,29.73
2018-11-06T18:19:34.184Z,29.83
2018-11-06T18:22:44.152Z,29.00
2018-11-06T18:25:53.692Z,28.27
2018-11-06T18:29:02.691Z,29.27
2018-11-06T18:32:12.012Z,28.90
2018-11-06T18:35:21.063Z,28.33
2018-11-06T18:38:30.349Z,27.13
2018-11-06T18:41:39.567Z,28.00
2018-11-06T18:44:49.008Z,27.47
2018-11-06T18:47:58.351Z,28.00
2018-11-06T18:51:07.832Z,28.30
2018-11-06T18:54:17.229Z,28.57
2018-11-06T18:57:26.752Z,29.13
2018-11-06T19:00:36.031Z,28.93
2018-11-06T19:03:45.447Z,29.50
2018-11-06T19:06:54.842Z,29.73
2018-11-06T19:10:04.172Z,30.17
2018-11-06T19:13:13.527Z,29.50
2018-11-06T19:16:22.874Z,28.40
2018-11-06T19:19:32.181Z,29.67
2018-11-06T19:22:41.493Z,29.27
2018-11-06T19:25:50.872Z,29.13
2018-11-06T19:29:00.289Z,30.13
2018-11-06T19:32:09.520Z,30.33
2018-11-06T19:35:18.926Z,31.27
2018-11-06T19:38:28.169Z,29.93
2018-11-06T19:41:37.668Z,31.23
2018-11-06T19:44:46.863Z,30.90
2018-11-06T19:47:56.405Z,31.90
2018-11-06T19:51:05.643Z,30.83
2018-11-06T19:54:15.116Z,31.63
2018-11-06T19:57:24.329Z,31.47
2018-11-06T20:00:33.723Z,32.57
2018-11-06T20:03:42.973Z,32.53
2018-11-06T20:06:52.054Z,32.60
2018-11-06T20:10:01.434Z,31.77
2018-11-06T20:13:10.786Z,31.40
2018-11-06T20:16:20.068Z,32.27
2018-11-06T20:19:29.473Z,30.43
2018-11-06T20:22:38.858Z,30.93
2018-11-06T20:25:48.136Z,31.07
2018-11-06T20:28:57.533Z,31.50
2018-11-06T20:32:06.689Z,32.07
2018-11-06T20:35:16.231Z,32.50
2018-11-06T20:38:25.579Z,33.73
2018-11-06T20:41:34.844Z,33.50
2018-11-06T20:44:44.041Z,33.93
2018-11-06T20:47:53.198Z,34.13
2018-11-06T20:51:02.414Z,33.23
2018-11-06T20:54:11.778Z,33.47
2018-11-06T20:57:21.202Z,35.13
2018-11-06T21:00:30.808Z,34.77
2018-11-06T21:03:40.124Z,35.50
2018-11-06T21:06:49.406Z,34.03
2018-11-06T21:09:58.653Z,35.43
2018-11-06T21:13:08.047Z,34.13
2018-11-06T21:16:17.307Z,34.53
2018-11-06T21:19:26.734Z,34.87
2018-11-06T21:22:35.898Z,34.90
2018-11-06T21:25:45.285Z,36.17
2018-11-06T21:28:54.441Z,35.60
2018-11-06T21:32:03.932Z,35.47
2018-11-06T21:35:13.111Z,36.33
2018-11-06T21:38:22.553Z,36.70
2018-11-06T21:41:31.931Z,36.17
2018-11-06T21:44:41.123Z,36.33
2018-11-06T21:47:50.931Z,36.20
2018-11-06T21:51:00.224Z,36.57
2018-11-06T21:54:09.513Z,37.10
2018-11-06T21:57:18.877Z,36.53
2018-11-06T22:00:28.881Z,37.10
2018-11-06T22:03:38.168Z,37.40
2018-11-06T22:06:47.377Z,37.10
2018-11-06T22:09:56.714Z,39.07
2018-11-06T22:13:05.886Z,38.13
2018-11-06T22:16:15.212Z,38.30
2018-11-06T22:19:24.386Z,37.07
2018-11-06T22:22:33.967Z,36.60
2018-11-06T22:25:43.220Z,37.27
2018-11-06T22:28:52.431Z,36.57
2018-11-06T22:32:01.779Z,36.53
2018-11-06T22:35:12.619Z,36.40
2018-11-06T22:38:21.752Z,35.97
2018-11-06T22:41:31.156Z,36.37
2018-11-06T22:44:40.354Z,36.80
2018-11-06T22:47:49.551Z,36.70
2018-11-06T22:50:58.863Z,34.40
2018-11-06T22:54:08.181Z,34.67
2018-11-06T22:57:17.528Z,34.70
2018-11-06T23:00:32.935Z,36.63
2018-11-06T23:03:42.635Z,37.30
2018-11-06T23:06:52.032Z,38.50
2018-11-06T23:10:01.326Z,35.63
2018-11-06T23:13:10.890Z,36.13
2018-11-06T23:16:20.124Z,36.90
2018-11-06T23:19:29.303Z,37.33
2018-11-06T23:22:38.935Z,36.97
2018-11-06T23:25:48.274Z,36.70
2018-11-06T23:28:57.579Z,35.97
2018-11-06T23:32:06.736Z,37.43
2018-11-06T23:35:17.324Z,36.40
2018-11-06T23:38:28.643Z,38.37
2018-11-06T23:41:39.410Z,36.60
2018-11-06T23:44:51.049Z,37.33
2018-11-06T23:48:02.803Z,35.40
2018-11-06T23:51:12.049Z,36.03
2018-11-06T23:54:21.332Z,36.13
2018-11-06T23:57:30.821Z,33.90
